Time,TemperatureF,DewpointF,PressureIn,WindDirection,WindDirectionDegrees,WindSpeedMPH,WindSpeedGustMPH,Humidity,HourlyPrecipIn,Conditions,Clouds,dailyrainin,SoftwareType,DateUTC
2013-07-04 00:05:00,76.3,72.5,29.91,North,-999,-999.0,-999.0,88,-99.99,,,-99.99,Acu-Link.com,2013-07-04 04:05:00,
2013-07-04 00:20:00,76.3,72.5,29.91,North,-999,-999.0,-999.0,88,-99.99,,,-99.99,Acu-Link.com,2013-07-04 04:20:00,
2013-07-04 00:35:00,76.5,72.6,29.90,North,-999,-999.0,-999.0,88,-99.99,,,-99.99,Acu-Link.com,2013-07-04 04:35:00,
2013-07-04 00:50:00,76.5,72.6,29.89,North,-999,-999.0,-999.0,88,-99.99,,,-99.99,Acu-Link.com,2013-07-04 04:50:00,
2013-07-04 01:05:00,76.5,72.6,29.89,North,-999,-999.0,-999.0,88,-99.99,,,-99.99,Acu-Link.com,2013-07-04 05:05:00,
2013-07-04 01:20:00,76.5,72.6,29.89,North,-999,-999.0,-999.0,88,-99.99,,,-99.99,Acu-Link.com,2013-07-04 05:20:00,
2013-07-04 01:35:00,76.3,72.5,29.89,North,-999,-999.0,-999.0,88,-99.99,,,-99.99,Acu-Link.com,2013-07-04 05:35:00,
2013-07-04 01:50:00,76.5,72.6,29.89,North,-999,-999.0,-999.0,88,-99.99,,,-99.99,Acu-Link.com,2013-07-04 05:50:00,
2013-07-04 02:05:00,76.3,72.5,29.88,North,-999,-999.0,-999.0,88,-99.99,,,-99.99,Acu-Link.com,2013-07-04 06:05:00,
2013-07-04 02:21:00,75.7,71.9,29.87,North,-999,-999.0,-999.0,88,-99.99,,,-99.99,Acu-Link.com,2013-07-04 06:21:00,
2013-07-04 02:36:00,75.6,71.7,29.87,North,-999,-999.0,-999.0,88,-99.99,,,-99.99,Acu-Link.com,2013-07-04 06:36:00,
2013-07-04 02:51:00,75.7,71.9,29.86,North,-999,-999.0,-999.0,88,-99.99,,,-99.99,Acu-Link.com,2013-07-04 06:51:00,
2013-07-04 03:06:00,75.7,71.9,29.86,North,-999,-999.0,-999.0,88,-99.99,,,-99.99,Acu-Link.com,2013-07-04 07:06:00,
2013-07-04 03:21:00,75.7,71.6,29.87,North,-999,-999.0,-999.0,87,-99.99,,,-99.99,Acu-Link.com,2013-07-04 07:21:00,
2013-07-04 03:36:00,76.1,71.9,29.86,North,-999,-999.0,-999.0,87,-99.99,,,-99.99,Acu-Link.com,2013-07-04 07:36:00,
2013-07-04 03:51:00,75.6,71.4,29.85,North,-999,-999.0,-999.0,87,-99.99,,,-99.99,Acu-Link.com,2013-07-04 07:51:00,
2013-07-04 04:06:00,75.4,71.2,29.85,North,-999,-999.0,-999.0,87,-99.99,,,-99.99,Acu-Link.com,2013-07-04 08:06:00,
2013-07-04 04:22:00,75.4,71.2,29.86,North,-999,-999.0,-999.0,87,-99.99,,,-99.99,Acu-Link.com,2013-07-04 08:22:00,
2013-07-04 04:37:00,75.4,71.2,29.86,North,-999,-999.0,-999.0,87,-99.99,,,-99.99,Acu-Link.com,2013-07-04 08:37:00,
2013-07-04 04:52:00,75.6,71.4,29.86,North,-999,-999.0,-999.0,87,-99.99,,,-99.99,Acu-Link.com,2013-07-04 08:52:00,
2013-07-04 05:07:00,75.6,71.4,29.85,North,-999,-999.0,-999.0,87,-99.99,,,-99.99,Acu-Link.com,2013-07-04 09:07:00,
2013-07-04 05:22:00,76.1,71.6,29.85,North,-999,-999.0,-999.0,86,-99.99,,,-99.99,Acu-Link.com,2013-07-04 09:22:00,
2013-07-04 05:37:00,75.7,71.2,29.86,North,-999,-999.0,-999.0,86,-99.99,,,-99.99,Acu-Link.com,2013-07-04 09:37:00,
2013-07-04 05:52:00,75.7,71.2,29.86,North,-999,-999.0,-999.0,86,-99.99,,,-99.99,Acu-Link.com,2013-07-04 09:52:00,
2013-07-04 06:07:00,75.7,71.2,29.86,North,-999,-999.0,-999.0,86,-99.99,,,-99.99,Acu-Link.com,2013-07-04 10:07:00,
2013-07-04 06:22:00,75.6,71.1,29.86,North,-999,-999.0,-999.0,86,-99.99,,,-99.99,Acu-Link.com,2013-07-04 10:22:00,
2013-07-04 06:37:00,75.7,71.2,29.86,North,-999,-999.0,-999.0,86,-99.99,,,-99.99,Acu-Link.com,2013-07-04 10:37:00,
2013-07-04 06:52:00,76.1,71.6,29.87,North,-999,-999.0,-999.0,86,-99.99,,,-99.99,Acu-Link.com,2013-07-04 10:52:00,
2013-07-04 07:08:00,76.1,71.6,29.87,North,-999,-999.0,-999.0,86,-99.99,,,-99.99,Acu-Link.com,2013-07-04 11:08:00,
2013-07-04 07:23:00,76.5,71.6,29.89,North,-999,-999.0,-999.0,85,-99.99,,,-99.99,Acu-Link.com,2013-07-04 11:23:00,
2013-07-04 07:38:00,77.0,71.8,29.88,North,-999,-999.0,-999.0,84,-99.99,,,-99.99,Acu-Link.com,2013-07-04 11:38:00,
2013-07-04 07:53:00,78.1,72.5,29.89,North,-999,-999.0,-999.0,83,-99.99,,,-99.99,Acu-Link.com,2013-07-04 11:53:00,
2013-07-04 08:08:00,79.2,72.8,29.90,North,-999,-999.0,-999.0,81,-99.99,,,-99.99,Acu-Link.com,2013-07-04 12:08:00,
2013-07-04 08:23:00,79.7,73.0,29.89,North,-999,-999.0,-999.0,80,-99.99,,,-99.99,Acu-Link.com,2013-07-04 12:23:00,
2013-07-04 08:38:00,80.6,73.5,29.90,North,-999,-999.0,-999.0,79,-99.99,,,-99.99,Acu-Link.com,2013-07-04 12:38:00,
2013-07-04 08:53:00,81.1,73.6,29.89,North,-999,-999.0,-999.0,78,-99.99,,,-99.99,Acu-Link.com,2013-07-04 12:53:00,
2013-07-04 09:08:00,81.5,73.6,29.89,North,-999,-999.0,-999.0,77,-99.99,,,-99.99,Acu-Link.com,2013-07-04 13:08:00,
2013-07-04 09:23:00,81.9,73.5,29.89,North,-999,-999.0,-999.0,76,-99.99,,,-99.99,Acu-Link.com,2013-07-04 13:23:00,
2013-07-04 09:38:00,82.4,74.1,29.90,North,-999,-999.0,-999.0,76,-99.99,,,-99.99,Acu-Link.com,2013-07-04 13:38:00,
2013-07-04 09:53:00,82.6,74.2,29.90,North,-999,-999.0,-999.0,76,-99.99,,,-99.99,Acu-Link.com,2013-07-04 13:53:00,
2013-07-04 10:08:00,82.6,74.2,29.90,North,-999,-999.0,-999.0,76,-99.99,,,-99.99,Acu-Link.com,2013-07-04 14:08:00,
2013-07-04 10:23:00,83.3,74.9,29.91,North,-999,-999.0,-999.0,76,-99.99,,,-99.99,Acu-Link.com,2013-07-04 14:23:00,
2013-07-04 10:38:00,83.7,74.9,29.90,North,-999,-999.0,-999.0,75,-99.99,,,-99.99,Acu-Link.com,2013-07-04 14:38:00,
2013-07-04 10:54:00,84.2,74.6,29.90,North,-999,-999.0,-999.0,73,-99.99,,,-99.99,Acu-Link.com,2013-07-04 14:54:00,
2013-07-04 11:09:00,84.4,74.3,29.90,North,-999,-999.0,-999.0,72,-99.99,,,-99.99,Acu-Link.com,2013-07-04 15:09:00,
2013-07-04 11:24:00,84.4,73.5,29.90,North,-999,-999.0,-999.0,70,-99.99,,,-99.99,Acu-Link.com,2013-07-04 15:24:00,
2013-07-04 11:39:00,84.4,73.1,29.92,North,-999,-999.0,-999.0,69,-99.99,,,-99.99,Acu-Link.com,2013-07-04 15:39:00,
2013-07-04 11:54:00,84.6,73.2,29.92,North,-999,-999.0,-999.0,69,-99.99,,,-99.99,Acu-Link.com,2013-07-04 15:54:00,
2013-07-04 12:09:00,85.5,73.7,29.91,North,-999,-999.0,-999.0,68,-99.99,,,-99.99,Acu-Link.com,2013-07-04 16:09:00,
2013-07-04 12:24:00,86.2,73.5,29.92,North,-999,-999.0,-999.0,66,-99.99,,,-99.99,Acu-Link.com,2013-07-04 16:24:00,
2013-07-04 12:39:00,87.8,73.6,29.92,North,-999,-999.0,-999.0,63,-99.99,,,-99.99,Acu-Link.com,2013-07-04 16:39:00,
2013-07-04 12:54:00,88.5,73.3,29.92,North,-999,-999.0,-999.0,61,-99.99,,,-99.99,Acu-Link.com,2013-07-04 16:54:00,
2013-07-04 13:09:00,87.8,72.2,29.91,North,-999,-999.0,-999.0,60,-99.99,,,-99.99,Acu-Link.com,2013-07-04 17:09:00,
2013-07-04 13:24:00,89.2,73.0,29.92,North,-999,-999.0,-999.0,59,-99.99,,,-99.99,Acu-Link.com,2013-07-04 17:24:00,
2013-07-04 13:39:00,89.2,72.0,29.91,North,-999,-999.0,-999.0,57,-99.99,,,-99.99,Acu-Link.com,2013-07-04 17:39:00,
2013-07-04 13:54:00,90.1,72.3,29.91,North,-999,-999.0,-999.0,56,-99.99,,,-99.99,Acu-Link.com,2013-07-04 17:54:00,
2013-07-04 14:09:00,90.9,73.0,29.90,North,-999,-999.0,-999.0,56,-99.99,,,-99.99,Acu-Link.com,2013-07-04 18:09:00,
2013-07-04 14:24:00,91.0,72.6,29.91,North,-999,-999.0,-999.0,55,-99.99,,,-99.99,Acu-Link.com,2013-07-04 18:24:00,
2013-07-04 14:40:00,92.3,73.2,29.90,North,-999,-999.0,-999.0,54,-99.99,,,-99.99,Acu-Link.com,2013-07-04 18:40:00,
2013-07-04 14:55:00,90.9,71.3,29.89,North,-999,-999.0,-999.0,53,-99.99,,,-99.99,Acu-Link.com,2013-07-04 18:55:00,
2013-07-04 15:10:00,91.9,72.9,29.88,North,-999,-999.0,-999.0,54,-99.99,,,-99.99,Acu-Link.com,2013-07-04 19:10:00,
2013-07-04 15:25:00,92.3,73.2,29.87,North,-999,-999.0,-999.0,54,-99.99,,,-99.99,Acu-Link.com,2013-07-04 19:25:00,
2013-07-04 15:40:00,90.5,71.5,29.89,North,-999,-999.0,-999.0,54,-99.99,,,-99.99,Acu-Link.com,2013-07-04 19:40:00,
2013-07-04 15:55:00,82.0,69.1,29.90,North,-999,-999.0,-999.0,65,-99.99,,,-99.99,Acu-Link.com,2013-07-04 19:55:00,
2013-07-04 16:10:00,79.3,68.3,29.89,North,-999,-999.0,-999.0,69,-99.99,,,-99.99,Acu-Link.com,2013-07-04 20:10:00,
2013-07-04 16:25:00,77.4,68.4,29.90,North,-999,-999.0,-999.0,74,-99.99,,,-99.99,Acu-Link.com,2013-07-04 20:25:00,
2013-07-04 16:40:00,76.5,69.1,29.91,North,-999,-999.0,-999.0,78,-99.99,,,-99.99,Acu-Link.com,2013-07-04 20:40:00,
2013-07-04 16:55:00,76.6,70.4,29.89,North,-999,-999.0,-999.0,81,-99.99,,,-99.99,Acu-Link.com,2013-07-04 20:55:00,
2013-07-04 17:10:00,76.5,68.7,29.88,North,-999,-999.0,-999.0,77,-99.99,,,-99.99,Acu-Link.com,2013-07-04 21:10:00,
2013-07-04 17:25:00,77.0,68.8,29.85,North,-999,-999.0,-999.0,76,-99.99,,,-99.99,Acu-Link.com,2013-07-04 21:25:00,
2013-07-04 17:40:00,77.2,69.0,29.87,North,-999,-999.0,-999.0,76,-99.99,,,-99.99,Acu-Link.com,2013-07-04 21:40:00,
2013-07-04 17:55:00,77.5,69.7,29.89,North,-999,-999.0,-999.0,77,-99.99,,,-99.99,Acu-Link.com,2013-07-04 21:55:00,
2013-07-04 18:10:00,77.5,69.4,29.90,North,-999,-999.0,-999.0,76,-99.99,,,-99.99,Acu-Link.com,2013-07-04 22:10:00,
2013-07-04 18:25:00,77.5,69.7,29.89,North,-999,-999.0,-999.0,77,-99.99,,,-99.99,Acu-Link.com,2013-07-04 22:25:00,
2013-07-04 18:40:00,77.5,69.7,29.88,North,-999,-999.0,-999.0,77,-99.99,,,-99.99,Acu-Link.com,2013-07-04 22:40:00,
2013-07-04 18:55:00,77.4,69.6,29.88,North,-999,-999.0,-999.0,77,-99.99,,,-99.99,Acu-Link.com,2013-07-04 22:55:00,
2013-07-04 19:10:00,77.4,69.6,29.89,North,-999,-999.0,-999.0,77,-99.99,,,-99.99,Acu-Link.com,2013-07-04 23:10:00,
2013-07-04 19:25:00,77.9,70.1,29.89,North,-999,-999.0,-999.0,77,-99.99,,,-99.99,Acu-Link.com,2013-07-04 23:25:00,
2013-07-04 19:40:00,78.3,70.4,29.89,North,-999,-999.0,-999.0,77,-99.99,,,-99.99,Acu-Link.com,2013-07-04 23:40:00,
2013-07-04 19:56:00,78.1,71.0,29.90,North,-999,-999.0,-999.0,79,-99.99,,,-99.99,Acu-Link.com,2013-07-04 23:56:00,
2013-07-04 20:11:00,77.4,70.7,29.92,North,-999,-999.0,-999.0,80,-99.99,,,-99.99,Acu-Link.com,2013-07-05 00:11:00,
2013-07-04 20:26:00,77.2,70.5,29.94,North,-999,-999.0,-999.0,80,-99.99,,,-99.99,Acu-Link.com,2013-07-05 00:26:00,
2013-07-04 20:41:00,77.0,70.7,29.95,North,-999,-999.0,-999.0,81,-99.99,,,-99.99,Acu-Link.com,2013-07-05 00:41:00,
2013-07-04 20:56:00,76.5,70.9,29.95,North,-999,-999.0,-999.0,83,-99.99,,,-99.99,Acu-Link.com,2013-07-05 00:56:00,
2013-07-04 21:11:00,76.1,70.5,29.95,North,-999,-999.0,-999.0,83,-99.99,,,-99.99,Acu-Link.com,2013-07-05 01:11:00,
2013-07-04 21:26:00,76.3,70.7,29.94,North,-999,-999.0,-999.0,83,-99.99,,,-99.99,Acu-Link.com,2013-07-05 01:26:00,
2013-07-04 21:41:00,75.4,69.8,29.93,North,-999,-999.0,-999.0,83,-99.99,,,-99.99,Acu-Link.com,2013-07-05 01:41:00,
2013-07-04 21:56:00,75.4,70.2,29.92,North,-999,-999.0,-999.0,84,-99.99,,,-99.99,Acu-Link.com,2013-07-05 01:56:00,
2013-07-04 22:11:00,75.2,70.0,29.93,North,-999,-999.0,-999.0,84,-99.99,,,-99.99,Acu-Link.com,2013-07-05 02:11:00,
2013-07-04 22:26:00,75.2,70.4,29.92,North,-999,-999.0,-999.0,85,-99.99,,,-99.99,Acu-Link.com,2013-07-05 02:26:00,
2013-07-04 22:41:00,75.4,70.5,29.92,North,-999,-999.0,-999.0,85,-99.99,,,-99.99,Acu-Link.com,2013-07-05 02:41:00,
2013-07-04 22:56:00,76.1,71.3,29.93,North,-999,-999.0,-999.0,85,-99.99,,,-99.99,Acu-Link.com,2013-07-05 02:56:00,
2013-07-04 23:11:00,75.7,71.2,29.93,North,-999,-999.0,-999.0,86,-99.99,,,-99.99,Acu-Link.com,2013-07-05 03:11:00,
2013-07-04 23:27:00,75.7,71.2,29.93,North,-999,-999.0,-999.0,86,-99.99,,,-99.99,Acu-Link.com,2013-07-05 03:27:00,
2013-07-04 23:42:00,76.1,71.6,29.94,North,-999,-999.0,-999.0,86,-99.99,,,-99.99,Acu-Link.com,2013-07-05 03:42:00,
2013-07-04 23:57:00,76.1,71.3,29.93,North,-999,-999.0,-999.0,85,-99.99,,,-99.99,Acu-Link.com,2013-07-05 03:57:00,